createdAt,value
2022-12-31T00:01:46.569Z,12.20
2022-12-31T00:04:13.382Z,12.20
2022-12-31T00:06:39.971Z,12.20
2022-12-31T00:09:07.594Z,12.10
2022-12-31T00:11:34.971Z,12.10
2022-12-31T00:14:01.680Z,12.20
2022-12-31T00:16:30.395Z,12.20
2022-12-31T00:19:00.625Z,12.20
2022-12-31T00:21:28.678Z,12.10
2022-12-31T00:23:55.426Z,12.20
2022-12-31T00:26:27.180Z,12.20
2022-12-31T00:28:54.691Z,12.10
2022-12-31T00:31:26.559Z,12.20
2022-12-31T00:33:53.580Z,12.20
2022-12-31T00:36:22.435Z,12.20
2022-12-31T00:38:50.467Z,12.20
2022-12-31T00:41:17.903Z,12.30
2022-12-31T00:43:44.582Z,12.30
2022-12-31T00:46:11.729Z,12.30
2022-12-31T00:48:38.623Z,12.30
2022-12-31T00:51:06.697Z,12.20
2022-12-31T00:53:33.413Z,12.30
2022-12-31T00:56:01.178Z,12.30
2022-12-31T00:58:28.127Z,12.30
2022-12-31T01:00:54.819Z,12.40
2022-12-31T01:03:21.693Z,12.40
2022-12-31T01:05:50.463Z,12.40
2022-12-31T01:08:17.642Z,12.40
2022-12-31T01:11:07.165Z,12.50
2022-12-31T01:13:34.222Z,12.50
2022-12-31T01:16:08.325Z,12.50
2022-12-31T01:18:35.041Z,12.50
2022-12-31T01:21:03.244Z,12.40
2022-12-31T01:23:30.908Z,12.50
2022-12-31T01:25:59.815Z,12.50
2022-12-31T01:28:26.473Z,12.40
2022-12-31T01:30:53.120Z,12.40
2022-12-31T01:33:19.889Z,12.30
2022-12-31T01:35:46.482Z,12.40
2022-12-31T01:38:15.244Z,12.40
2022-12-31T01:40:42.300Z,12.30
2022-12-31T01:43:16.602Z,12.30
2022-12-31T01:45:44.171Z,12.30
2022-12-31T01:48:12.395Z,12.30
2022-12-31T01:50:39.968Z,12.30
2022-12-31T01:53:07.689Z,12.30
2022-12-31T01:55:41.930Z,12.30
2022-12-31T01:58:11.626Z,12.20
2022-12-31T02:00:38.450Z,12.30
2022-12-31T02:03:07.365Z,12.30
2022-12-31T02:05:38.108Z,12.30
2022-12-31T02:08:05.935Z,12.30
2022-12-31T02:10:32.653Z,12.30
2022-12-31T02:12:59.738Z,12.40
2022-12-31T02:15:52.982Z,12.50
2022-12-31T02:18:29.538Z,12.50
2022-12-31T02:20:58.966Z,12.60
2022-12-31T02:23:44.546Z,12.60
2022-12-31T02:26:30.522Z,12.70
2022-12-31T02:29:26.711Z,12.80
2022-12-31T02:31:58.929Z,12.90
2022-12-31T02:34:52.129Z,12.90
2022-12-31T02:37:19.945Z,12.90
2022-12-31T02:39:47.293Z,12.90
2022-12-31T02:42:13.935Z,12.90
2022-12-31T02:44:41.559Z,13.00
2022-12-31T02:47:08.179Z,13.00
2022-12-31T02:49:53.736Z,13.10
2022-12-31T02:52:32.199Z,13.10
2022-12-31T02:55:02.533Z,13.20
2022-12-31T02:57:38.117Z,13.30
2022-12-31T03:00:28.067Z,13.30
2022-12-31T03:02:55.328Z,13.30
2022-12-31T03:05:26.930Z,13.40
2022-12-31T03:07:53.739Z,13.40
2022-12-31T03:10:20.357Z,13.40
2022-12-31T03:12:47.671Z,13.50
2022-12-31T03:15:22.196Z,13.50
2022-12-31T03:18:44.568Z,13.50
2022-12-31T03:21:30.225Z,13.50
2022-12-31T03:24:15.728Z,13.50
2022-12-31T03:26:42.442Z,13.60
2022-12-31T03:29:09.226Z,13.60
2022-12-31T03:31:35.872Z,13.60
2022-12-31T03:34:02.503Z,13.60
2022-12-31T03:36:29.152Z,13.70
2022-12-31T03:38:55.796Z,13.70
2022-12-31T03:41:22.508Z,13.80
2022-12-31T03:43:49.108Z,13.80
2022-12-31T03:46:15.745Z,13.80
2022-12-31T03:48:42.455Z,13.80
2022-12-31T03:51:09.216Z,13.80
2022-12-31T03:53:35.962Z,13.80
2022-12-31T03:56:02.780Z,13.80
2022-12-31T03:58:29.482Z,13.80
2022-12-31T04:00:56.250Z,13.70
2022-12-31T04:03:22.967Z,13.70
2022-12-31T04:05:52.503Z,13.70
2022-12-31T04:08:19.101Z,13.70
2022-12-31T04:10:46.054Z,13.70
2022-12-31T04:13:12.665Z,13.60
2022-12-31T04:15:39.260Z,13.60
2022-12-31T04:18:06.010Z,13.60
2022-12-31T04:20:32.644Z,13.60
2022-12-31T04:22:59.241Z,13.60
2022-12-31T04:25:25.935Z,13.60
2022-12-31T04:27:52.499Z,13.60
2022-12-31T04:30:19.205Z,13.60
2022-12-31T04:32:45.793Z,13.60
2022-12-31T04:35:12.536Z,13.60
2022-12-31T04:37:39.278Z,13.70
2022-12-31T04:40:07.211Z,13.70
2022-12-31T04:42:34.277Z,13.70
2022-12-31T04:45:00.937Z,13.80
2022-12-31T04:47:27.653Z,13.80
2022-12-31T04:49:54.226Z,13.90
2022-12-31T04:52:21.267Z,13.90
2022-12-31T04:54:48.083Z,13.90
2022-12-31T04:57:14.692Z,14.00
2022-12-31T04:59:41.324Z,14.00
2022-12-31T05:02:08.331Z,14.00
2022-12-31T05:04:35.224Z,14.10
2022-12-31T05:07:01.913Z,14.10
2022-12-31T05:09:28.973Z,14.20
2022-12-31T05:11:55.592Z,14.10
2022-12-31T05:14:22.361Z,14.10
2022-12-31T05:16:49.062Z,14.10
2022-12-31T05:19:16.152Z,14.00
2022-12-31T05:21:42.734Z,14.00
2022-12-31T05:24:09.399Z,14.00
2022-12-31T05:26:36.120Z,14.00
2022-12-31T05:29:02.729Z,14.00
2022-12-31T05:31:29.406Z,14.00
2022-12-31T05:33:56.135Z,14.10
2022-12-31T05:36:22.799Z,14.20
2022-12-31T05:38:49.396Z,14.20
2022-12-31T05:41:16.070Z,14.30
2022-12-31T05:43:42.763Z,14.30
2022-12-31T05:46:09.431Z,14.40
2022-12-31T05:48:36.283Z,14.40
2022-12-31T05:51:02.858Z,14.40
2022-12-31T05:53:29.523Z,14.50
2022-12-31T05:55:56.281Z,14.50
2022-12-31T05:58:22.943Z,14.50
2022-12-31T06:00:50.887Z,14.60
2022-12-31T06:03:17.573Z,14.70
2022-12-31T06:05:44.170Z,14.80
2022-12-31T06:08:11.341Z,14.80
2022-12-31T06:10:38.509Z,14.90
2022-12-31T06:13:05.206Z,15.00
2022-12-31T06:15:32.070Z,15.00
2022-12-31T06:17:58.845Z,15.00
2022-12-31T06:20:25.542Z,15.20
2022-12-31T06:22:52.147Z,15.30
2022-12-31T06:25:19.008Z,15.40
2022-12-31T06:27:45.805Z,15.40
2022-12-31T06:30:12.905Z,15.50
2022-12-31T06:32:40.626Z,15.50
2022-12-31T06:35:07.477Z,15.60
2022-12-31T06:37:34.098Z,15.60
2022-12-31T06:40:00.900Z,15.60
2022-12-31T06:42:31.274Z,15.60
2022-12-31T06:44:58.407Z,15.60
2022-12-31T06:47:25.661Z,15.70
2022-12-31T06:49:53.316Z,15.60
2022-12-31T06:52:20.127Z,15.60
2022-12-31T06:54:47.005Z,15.70
2022-12-31T06:57:14.026Z,15.70
2022-12-31T06:59:41.634Z,15.70
2022-12-31T07:02:17.583Z,15.80
2022-12-31T07:04:44.315Z,15.80
2022-12-31T07:07:10.938Z,15.80
2022-12-31T07:09:39.940Z,15.80
2022-12-31T07:12:12.419Z,15.80
2022-12-31T07:14:39.070Z,15.80
2022-12-31T07:17:18.450Z,15.80
2022-12-31T07:19:57.827Z,15.80
2022-12-31T07:22:24.968Z,15.70
2022-12-31T07:24:51.751Z,15.70
2022-12-31T07:27:27.599Z,15.80
2022-12-31T07:30:10.299Z,15.80
2022-12-31T07:32:55.952Z,15.90
2022-12-31T07:35:41.037Z,15.90
2022-12-31T07:38:17.024Z,15.90
2022-12-31T07:40:46.794Z,15.90
2022-12-31T07:43:31.928Z,15.90
2022-12-31T07:46:07.258Z,16.00
2022-12-31T07:48:34.104Z,15.90
2022-12-31T07:51:00.842Z,15.90
2022-12-31T07:53:29.424Z,15.90
2022-12-31T07:55:58.205Z,15.90
2022-12-31T07:58:34.150Z,15.90
2022-12-31T08:01:01.863Z,15.90
2022-12-31T08:03:28.722Z,15.90
2022-12-31T08:06:07.540Z,16.00
2022-12-31T08:08:47.303Z,15.90
2022-12-31T08:11:23.130Z,15.90
2022-12-31T08:13:52.770Z,16.00
2022-12-31T08:16:19.824Z,16.00
2022-12-31T08:18:46.714Z,16.00
2022-12-31T08:21:14.199Z,16.00
2022-12-31T08:24:04.242Z,16.10
2022-12-31T08:26:36.382Z,16.20
2022-12-31T08:29:25.219Z,16.10
2022-12-31T08:32:02.866Z,16.10
2022-12-31T08:34:29.608Z,16.10
2022-12-31T08:37:11.027Z,16.20
2022-12-31T08:40:05.745Z,16.20
2022-12-31T08:42:52.086Z,16.20
2022-12-31T08:45:28.517Z,16.20
2022-12-31T08:48:01.128Z,16.20
2022-12-31T08:50:28.776Z,16.30
2022-12-31T08:52:55.750Z,16.30
2022-12-31T08:55:22.680Z,16.40
2022-12-31T08:57:55.607Z,16.40
2022-12-31T09:00:22.804Z,16.40
2022-12-31T09:03:05.270Z,16.40
2022-12-31T09:05:44.374Z,16.40
2022-12-31T09:08:28.687Z,16.50
2022-12-31T09:10:55.608Z,16.60
2022-12-31T09:13:32.175Z,16.60
2022-12-31T09:16:05.894Z,16.60
2022-12-31T09:18:34.493Z,16.70
2022-12-31T09:21:01.268Z,16.80
2022-12-31T09:23:28.852Z,16.80
2022-12-31T09:26:00.937Z,16.70
2022-12-31T09:28:43.357Z,16.70
2022-12-31T09:31:21.855Z,16.70
2022-12-31T09:33:58.177Z,16.80
2022-12-31T09:36:34.348Z,16.80
2022-12-31T09:39:07.263Z,16.80
2022-12-31T09:41:52.511Z,16.80
2022-12-31T09:44:25.391Z,16.80
2022-12-31T09:47:01.425Z,16.80
2022-12-31T09:49:28.214Z,16.80
2022-12-31T09:52:09.424Z,16.80
2022-12-31T09:55:15.314Z,16.80
2022-12-31T09:57:52.695Z,16.80
2022-12-31T10:00:22.735Z,16.80
2022-12-31T10:02:59.839Z,16.80
2022-12-31T10:05:45.671Z,16.70
2022-12-31T10:08:36.356Z,16.70
2022-12-31T10:11:06.440Z,16.70
2022-12-31T10:13:36.826Z,16.70
2022-12-31T10:16:09.874Z,16.70
2022-12-31T10:18:42.471Z,16.70
2022-12-31T10:21:19.320Z,16.70
2022-12-31T10:23:55.940Z,16.80
2022-12-31T10:26:53.553Z,16.90
2022-12-31T10:29:35.575Z,16.90
2022-12-31T10:32:08.882Z,17.00
2022-12-31T10:35:01.644Z,17.00
2022-12-31T10:37:52.901Z,17.00
2022-12-31T10:40:39.599Z,17.00
2022-12-31T10:43:13.122Z,17.00
2022-12-31T10:45:51.870Z,17.00
2022-12-31T10:48:18.647Z,17.00
2022-12-31T10:51:07.616Z,16.90
2022-12-31T10:53:54.309Z,17.00
2022-12-31T10:56:33.548Z,17.00
2022-12-31T10:59:00.658Z,17.00
2022-12-31T11:01:32.896Z,17.10
2022-12-31T11:04:33.970Z,17.10
2022-12-31T11:07:10.264Z,17.10
2022-12-31T11:09:56.247Z,17.20
2022-12-31T11:12:32.828Z,17.20
2022-12-31T11:15:19.909Z,17.20
2022-12-31T11:17:57.095Z,17.30
2022-12-31T11:20:45.187Z,17.30
2022-12-31T11:23:41.598Z,17.30
2022-12-31T11:26:19.510Z,17.30
2022-12-31T11:29:05.964Z,17.40
2022-12-31T11:31:47.876Z,17.40
2022-12-31T11:34:37.806Z,17.40
2022-12-31T11:37:12.278Z,17.40
2022-12-31T11:40:02.802Z,17.50
2022-12-31T11:42:33.556Z,17.50
2022-12-31T11:45:19.319Z,17.60
2022-12-31T11:48:29.141Z,17.60
2022-12-31T11:51:11.283Z,17.70
2022-12-31T11:53:42.349Z,17.70
2022-12-31T11:56:23.449Z,17.70
2022-12-31T11:58:55.071Z,17.70
2022-12-31T12:01:35.045Z,17.70
2022-12-31T12:04:06.231Z,17.70
2022-12-31T12:06:33.324Z,17.60
2022-12-31T12:09:10.734Z,17.50
2022-12-31T12:11:39.695Z,17.50
2022-12-31T12:14:19.409Z,17.50
2022-12-31T12:16:47.035Z,17.50
2022-12-31T12:19:17.714Z,17.50
2022-12-31T12:21:46.515Z,17.40
2022-12-31T12:24:21.784Z,17.40
2022-12-31T12:26:49.052Z,17.40
2022-12-31T12:29:24.312Z,17.40
2022-12-31T12:32:01.064Z,17.40
2022-12-31T12:34:29.311Z,17.30
2022-12-31T12:36:56.003Z,17.30
2022-12-31T12:39:24.823Z,17.30
2022-12-31T12:42:03.397Z,17.30
2022-12-31T12:44:31.917Z,17.30
2022-12-31T12:46:58.613Z,17.30
2022-12-31T12:49:26.950Z,17.30
2022-12-31T12:51:56.804Z,17.30
2022-12-31T12:54:42.294Z,17.20
2022-12-31T12:57:39.577Z,17.20
2022-12-31T13:00:12.256Z,17.10
2022-12-31T13:02:51.289Z,17.10
2022-12-31T13:05:28.776Z,17.00
2022-12-31T13:08:16.802Z,17.00
2022-12-31T13:10:51.565Z,17.00
2022-12-31T13:13:26.222Z,17.00
2022-12-31T13:16:08.541Z,17.00
2022-12-31T13:18:58.511Z,16.90
2022-12-31T13:21:32.551Z,16.90
2022-12-31T13:24:04.405Z,16.80
2022-12-31T13:26:38.551Z,16.80
2022-12-31T13:29:05.620Z,16.70
2022-12-31T13:31:37.551Z,16.70
2022-12-31T13:34:13.369Z,16.70
2022-12-31T13:36:41.671Z,16.70
2022-12-31T13:39:14.567Z,16.60
2022-12-31T13:41:41.299Z,16.60
2022-12-31T13:44:20.506Z,16.50
2022-12-31T13:46:47.344Z,16.50
2022-12-31T13:49:13.897Z,16.40
2022-12-31T13:51:44.573Z,16.40
2022-12-31T13:54:26.728Z,16.40
2022-12-31T13:56:53.826Z,16.40
2022-12-31T13:59:28.076Z,16.40
2022-12-31T14:01:59.264Z,16.40
2022-12-31T14:04:44.917Z,16.40
2022-12-31T14:07:17.979Z,16.40
2022-12-31T14:09:46.476Z,16.40
2022-12-31T14:12:17.713Z,16.40
2022-12-31T14:14:44.534Z,16.40
2022-12-31T14:17:22.720Z,16.40
2022-12-31T14:20:08.362Z,16.40
2022-12-31T14:22:38.277Z,16.40
2022-12-31T14:25:10.298Z,16.50
2022-12-31T14:27:39.319Z,16.50
2022-12-31T14:30:09.936Z,16.50
2022-12-31T14:32:53.473Z,16.40
2022-12-31T14:35:30.792Z,16.50
2022-12-31T14:38:02.738Z,16.50
2022-12-31T14:40:38.790Z,16.50
2022-12-31T14:43:24.258Z,16.50
2022-12-31T14:46:10.505Z,16.60
2022-12-31T14:48:45.399Z,16.60
2022-12-31T14:51:12.957Z,16.50
2022-12-31T14:53:39.632Z,16.60
2022-12-31T14:56:25.853Z,16.60
2022-12-31T14:58:56.654Z,16.60
2022-12-31T15:01:25.937Z,16.50
2022-12-31T15:03:55.576Z,16.50
2022-12-31T15:06:37.560Z,16.40
2022-12-31T15:09:23.310Z,16.40
2022-12-31T15:11:59.176Z,16.40
2022-12-31T15:14:43.354Z,16.30
2022-12-31T15:17:22.325Z,16.30
2022-12-31T15:19:49.107Z,16.30
2022-12-31T15:22:15.646Z,16.30
2022-12-31T15:24:45.716Z,16.20
2022-12-31T15:27:42.528Z,16.20
2022-12-31T15:30:30.494Z,16.20
2022-12-31T15:32:58.823Z,16.10
2022-12-31T15:35:27.299Z,16.10
2022-12-31T15:38:02.133Z,16.10
2022-12-31T15:40:29.534Z,16.10
2022-12-31T15:43:10.112Z,16.00
2022-12-31T15:45:38.535Z,16.00
2022-12-31T15:48:08.099Z,16.00
2022-12-31T15:50:36.894Z,15.90
2022-12-31T15:53:04.003Z,15.90
2022-12-31T15:55:37.665Z,15.90
2022-12-31T15:58:06.007Z,15.80
2022-12-31T16:01:02.144Z,15.70
2022-12-31T16:03:29.600Z,15.70
2022-12-31T16:06:00.924Z,15.60
2022-12-31T16:08:29.713Z,15.60
2022-12-31T16:10:57.251Z,15.60
2022-12-31T16:13:25.307Z,15.60
2022-12-31T16:15:53.831Z,15.50
2022-12-31T16:18:23.047Z,15.50
2022-12-31T16:20:51.643Z,15.50
2022-12-31T16:23:22.791Z,15.60
2022-12-31T16:25:50.753Z,15.50
2022-12-31T16:28:23.156Z,15.60
2022-12-31T16:30:58.809Z,15.60
2022-12-31T16:33:26.408Z,15.50
2022-12-31T16:35:57.659Z,15.50
2022-12-31T16:38:37.301Z,15.50
2022-12-31T16:41:17.050Z,15.50
2022-12-31T16:43:44.587Z,15.50
2022-12-31T16:46:25.680Z,15.50
2022-12-31T16:48:56.903Z,15.50
2022-12-31T16:51:25.403Z,15.50
2022-12-31T16:53:52.445Z,15.60
2022-12-31T16:56:22.653Z,15.60
2022-12-31T16:58:50.182Z,15.60
2022-12-31T17:01:18.631Z,15.50
2022-12-31T17:03:50.249Z,15.60
2022-12-31T17:06:18.148Z,15.60
2022-12-31T17:08:50.539Z,15.60
2022-12-31T17:11:23.227Z,15.50
2022-12-31T17:13:55.278Z,15.60
2022-12-31T17:16:22.250Z,15.60
2022-12-31T17:18:48.964Z,15.60
2022-12-31T17:21:16.616Z,15.60
2022-12-31T17:23:52.983Z,15.60
2022-12-31T17:26:24.783Z,15.60
2022-12-31T17:28:52.148Z,15.60
2022-12-31T17:31:45.455Z,15.60
2022-12-31T17:34:12.198Z,15.60
2022-12-31T17:36:40.355Z,15.50
2022-12-31T17:39:15.279Z,15.50
2022-12-31T17:41:44.421Z,15.50
2022-12-31T17:44:15.017Z,15.60
2022-12-31T17:46:41.976Z,15.60
2022-12-31T17:49:11.113Z,15.50
2022-12-31T17:51:41.234Z,15.60
2022-12-31T17:54:13.480Z,15.50
2022-12-31T17:56:40.338Z,15.50
2022-12-31T17:59:07.278Z,15.60
2022-12-31T18:01:34.205Z,15.60
2022-12-31T18:04:00.960Z,15.60
2022-12-31T18:06:27.596Z,15.60
2022-12-31T18:08:54.232Z,15.60
2022-12-31T18:11:22.064Z,15.60
2022-12-31T18:13:49.247Z,15.60
2022-12-31T18:16:15.897Z,15.60
2022-12-31T18:18:43.603Z,15.60
2022-12-31T18:21:19.997Z,15.60
2022-12-31T18:23:47.766Z,15.60
2022-12-31T18:26:18.684Z,15.70
2022-12-31T18:28:45.289Z,15.60
2022-12-31T18:31:26.337Z,15.70
2022-12-31T18:33:53.856Z,15.60
2022-12-31T18:36:20.837Z,15.60
2022-12-31T18:38:47.881Z,15.60
2022-12-31T18:41:19.054Z,15.60
2022-12-31T18:43:47.908Z,15.60
2022-12-31T18:46:16.779Z,15.60
2022-12-31T18:48:44.172Z,15.60
2022-12-31T18:51:15.204Z,15.60
2022-12-31T18:53:42.315Z,15.60
2022-12-31T18:56:11.048Z,15.60
2022-12-31T18:58:37.690Z,15.60
2022-12-31T19:01:04.684Z,15.60
2022-12-31T19:03:31.809Z,15.60
2022-12-31T19:05:58.481Z,15.60
2022-12-31T19:08:25.300Z,15.60
2022-12-31T19:10:52.510Z,15.50
2022-12-31T19:13:20.430Z,15.50
2022-12-31T19:15:48.745Z,15.50
2022-12-31T19:18:15.822Z,15.50
2022-12-31T19:20:42.636Z,15.50
2022-12-31T19:23:17.762Z,15.50
2022-12-31T19:25:45.449Z,15.50
2022-12-31T19:28:19.718Z,15.50
2022-12-31T19:30:46.969Z,15.40
2022-12-31T19:33:14.840Z,15.40
2022-12-31T19:35:41.968Z,15.40
2022-12-31T19:38:16.818Z,15.50
2022-12-31T19:40:44.084Z,15.40
2022-12-31T19:43:13.233Z,15.50
2022-12-31T19:45:40.987Z,15.40
2022-12-31T19:48:16.481Z,15.40
2022-12-31T19:50:44.551Z,15.40
2022-12-31T19:53:12.629Z,15.40
2022-12-31T19:55:39.897Z,15.40
2022-12-31T19:58:07.190Z,15.40
2022-12-31T20:00:34.165Z,15.40
2022-12-31T20:03:01.459Z,15.40
2022-12-31T20:05:28.216Z,15.40
2022-12-31T20:07:54.818Z,15.40
2022-12-31T20:10:21.440Z,15.40
2022-12-31T20:12:48.111Z,15.40
2022-12-31T20:15:14.715Z,15.40
2022-12-31T20:17:41.588Z,15.40
2022-12-31T20:20:08.393Z,15.40
2022-12-31T20:22:35.276Z,15.40
2022-12-31T20:25:01.915Z,15.40
2022-12-31T20:27:28.787Z,15.40
2022-12-31T20:29:55.675Z,15.40
2022-12-31T20:32:22.576Z,15.40
2022-12-31T20:34:49.496Z,15.40
2022-12-31T20:37:16.159Z,15.30
2022-12-31T20:39:43.966Z,15.40
2022-12-31T20:42:10.799Z,15.40
2022-12-31T20:44:37.457Z,15.40
2022-12-31T20:47:04.229Z,15.40
2022-12-31T20:50:01.276Z,15.40
2022-12-31T20:52:17.695Z,15.40
2022-12-31T20:54:44.445Z,15.40
2022-12-31T20:57:11.558Z,15.40
2022-12-31T20:59:39.551Z,15.40
2022-12-31T21:02:22.810Z,15.40
2022-12-31T21:04:53.411Z,15.40
2022-12-31T21:07:20.359Z,15.40
2022-12-31T21:09:47.042Z,15.40
2022-12-31T21:12:32.555Z,15.40
2022-12-31T21:14:59.215Z,15.40
2022-12-31T21:17:25.998Z,15.40
2022-12-31T21:19:52.662Z,15.40
2022-12-31T21:22:19.677Z,15.40
2022-12-31T21:24:46.333Z,15.40
2022-12-31T21:27:13.556Z,15.30
2022-12-31T21:30:02.072Z,15.30
2022-12-31T21:32:27.213Z,15.30
2022-12-31T21:35:31.108Z,15.30
2022-12-31T21:37:57.891Z,15.30
2022-12-31T21:40:27.184Z,15.30
2022-12-31T21:42:53.835Z,15.30
2022-12-31T21:45:20.476Z,15.30
2022-12-31T21:48:06.216Z,15.30
2022-12-31T21:50:33.345Z,15.40
2022-12-31T21:53:00.260Z,15.40
2022-12-31T21:55:47.272Z,15.40
2022-12-31T21:58:25.906Z,15.40
2022-12-31T22:01:12.892Z,15.40
2022-12-31T22:03:39.888Z,15.50
2022-12-31T22:06:20.540Z,15.50
2022-12-31T22:08:49.929Z,15.50
2022-12-31T22:11:17.131Z,15.40
2022-12-31T22:13:44.177Z,15.40
2022-12-31T22:16:12.726Z,15.40
2022-12-31T22:18:40.905Z,15.40
2022-12-31T22:21:17.457Z,15.50
2022-12-31T22:23:46.584Z,15.50
2022-12-31T22:26:17.402Z,15.50
2022-12-31T22:28:46.156Z,15.50
2022-12-31T22:31:14.484Z,15.50
2022-12-31T22:33:41.578Z,15.40
2022-12-31T22:36:10.629Z,15.40
2022-12-31T22:38:37.377Z,15.30
2022-12-31T22:41:05.854Z,15.30
2022-12-31T22:43:33.464Z,15.30
2022-12-31T22:46:05.504Z,15.20
2022-12-31T22:48:32.148Z,15.20
2022-12-31T22:50:58.760Z,15.20
2022-12-31T22:53:25.565Z,15.20
2022-12-31T22:55:55.381Z,15.20
2022-12-31T22:58:23.047Z,15.30
2022-12-31T23:00:50.568Z,15.30
2022-12-31T23:03:17.700Z,15.30
2022-12-31T23:05:44.745Z,15.30
2022-12-31T23:08:20.701Z,15.40
2022-12-31T23:10:59.631Z,15.40
2022-12-31T23:13:50.179Z,15.40
2022-12-31T23:16:37.209Z,15.40
2022-12-31T23:19:23.503Z,15.50
2022-12-31T23:22:09.166Z,15.50
2022-12-31T23:24:35.867Z,15.50
2022-12-31T23:27:02.655Z,15.50
2022-12-31T23:29:29.882Z,15.60
2022-12-31T23:31:56.906Z,15.50
2022-12-31T23:34:24.328Z,15.60
2022-12-31T23:36:50.958Z,15.60
2022-12-31T23:39:17.806Z,15.60
2022-12-31T23:41:44.524Z,15.60
2022-12-31T23:44:14.649Z,15.60
2022-12-31T23:46:42.356Z,15.60
2022-12-31T23:49:09.561Z,15.50
2022-12-31T23:51:36.641Z,15.60
2022-12-31T23:54:03.970Z,15.50
2022-12-31T23:56:30.675Z,15.50
2022-12-31T23:59:00.461Z,15.50
